SLLPSLCB

Guest
Details From SLLP - La Paz
To SLCB - JORGE WILSTERMAN
Flight Number -
Tags generated
Created
Modified
Stats Distance 128 nm / 238 km
Max Altitude 19,000 ft / 5,791 m
Waypoints 4
Social Downloads 1
Likes 0
Share VATSIM

Download

Looking for another format? Having issues loading an existing format? Contact us
Advertisement - Login to hide

Notes

Basic altitude profile: - Ascent Rate: 2500ft/min - Ascent Speed: 250kts - Cruise Altitude: 35000ft - Cruise Speed: 420kts - Descent Rate: 1500ft/min - Descent Speed: 250kts Options: - Use NATs: yes - Use PACOTS: yes - Use low airways: yes - Use high airways: yes

Route

SLLP TANOR W11 CBA SLCB

ID Type Via Altitude (ft/m) Position (lat/lon) Dist (leg/tot) Name
O SLLP APT - 0 / 0 -16.50936 / -68.19055 - / 0 nm La Paz
TANOR FIX - 7,600 / 2,316 -17.22657 / -66.76684 92 / 92 nm
CBA VOR W11 (AWY-LO) 19,000 / 5,791 -17.42126 / -66.17904 35 / 128 nm COCHABAMBA VOR-DME
O SLCB APT - 0 / 0 -17.42039 / -66.17717 0 / 128 nm JORGE WILSTERMAN

Altitude Profile

Advertisement - Login to hide

SLLP

Details ICAO SLLP (LPB)
Name El Alto Int'l
Region Bolivia
Timezone America/La_Paz (UTC-4.0)
Stats Elevation 13,312 ft / 4,058 m (AMSL)
Location -16.513300° -68.192300°
Runways 1
Magnetic Variation 8.081° W

METAR

SLLP 180300Z 00000KT 9999 FEW012 FEW017CB SCT200 06/03 Q1038

Decode

TAF

Not found

Departure Runways

ID Width Length Bearing (true/mag) Surface Threshold Overrun Markings Lighting
10 151 ft / 46 m 13,136 ft / 4,004 m 91.90° / 99.98° CONCRETE 0 ft / 0 m 118 ft / 36 m PREC-APP EDGE THRESHOLD ALSF-I REIL-OMNI
28 151 ft / 46 m 13,136 ft / 4,004 m 271.89° / 279.97° CONCRETE 0 ft / 0 m 102 ft / 31 m PREC-APP EDGE THRESHOLD ALSF-I REIL-OMNI

SLCB

Details ICAO SLCB (CBB)
Name JORGE WILSTERMAN
Region Bolivia
Timezone America/La_Paz (UTC-4.0)
Stats Elevation 8,359 ft / 2,548 m (AMSL)
Location -17.420400° -66.177200°
Runways 2
Magnetic Variation 9.561° W

METAR

SLCB 180300Z 12006KT 9999 FEW030 BKN200 19/07 Q1023

Decode

TAF

Not found

Destination Runways

ID Width Length Bearing (true/mag) Surface Threshold Overrun Markings Lighting
04 148 ft / 45 m 8,718 ft / 2,657 m 37.26° / 46.82° ASPHALT 0 ft / 0 m 0 ft / 0 m PREC-APP EDGE THRESHOLD
14 148 ft / 45 m 12,485 ft / 3,805 m 132.10° / 141.66° ASPHALT 335 ft / 102 m 200 ft / 61 m PREC-APP EDGE THRESHOLD
22 148 ft / 45 m 8,718 ft / 2,657 m 217.26° / 226.82° ASPHALT 732 ft / 223 m 0 ft / 0 m PREC-APP EDGE THRESHOLD
32 148 ft / 45 m 12,485 ft / 3,805 m 312.10° / 321.66° ASPHALT 984 ft / 300 m 200 ft / 61 m PREC-APP EDGE THRESHOLD ALSF-I

Approach Navaids

Runway Type Ident Frequency Range Bearing (true/mag) Slope Elevation
32 DME ILCO 110.50 MHz 18 nm / 33 km - - 8,360 ft / 2,548 m (AMSL)
32 GS ILCO 110.50 MHz 10 nm / 19 km 312.20° / 321.76 ° 3.30° 8,360 ft / 2,548 m (AMSL)
32 LOC-ILS ILCO 110.50 MHz 18 nm / 33 km 311.99° / 321.55 ° - 8,360 ft / 2,548 m (AMSL)

Popular Alternatives